Levan, Illinois
Current Conditions -  °F | °C
As of 2:52 PM on Tuesday 21 Oct 2014 (Local Time) from KMDH Reporting Station
Clear Clear  
Wind Chill: 69°   Ceiling: Unl
Heat Index: 69°   Visibility: NA
Dew Point: 43°   Wind: 8mph
Humidity: 39%   Direction: 330°NNW
Pressure: 30.09"   Gusts: NA
Location:  37.776°N, 89.3234°W
Report Text: KMDH 211952Z 33007KT CLR 21/06 A3009 RMK AO2 SLP187 T02060061 $
Loading
Personal Weather Stations






























Interactive Weather Map
Tropical Storm Tracking
New forecast layout! Learn more

10-Day Weather Forecast

Advertisements
Track Severe Weather on mobile